createdAt,value
2017-04-22T00:00:45.437Z,11.86
2017-04-22T00:01:45.170Z,11.86
2017-04-22T00:02:45.513Z,11.8
2017-04-22T00:03:45.246Z,11.87
2017-04-22T00:04:45.274Z,11.82
2017-04-22T00:05:45.620Z,11.8
2017-04-22T00:06:45.650Z,11.85
2017-04-22T00:07:45.378Z,11.83
2017-04-22T00:08:45.415Z,11.8
2017-04-22T00:09:45.451Z,11.89
2017-04-22T00:10:45.796Z,11.82
2017-04-22T00:11:45.640Z,11.83
2017-04-22T00:12:45.869Z,11.83
2017-04-22T00:13:45.907Z,11.82
2017-04-22T00:14:45.949Z,11.86
2017-04-22T00:15:45.673Z,11.78
2017-04-22T00:16:45.726Z,11.9
2017-04-22T00:17:45.748Z,11.78
2017-04-22T00:18:45.784Z,11.83
2017-04-22T00:19:46.265Z,11.83
2017-04-22T00:20:46.159Z,11.86
2017-04-22T00:21:45.892Z,11.82
2017-04-22T00:22:46.147Z,11.82
2017-04-22T00:23:45.962Z,11.83
2017-04-22T00:24:46.007Z,11.8
2017-04-22T00:25:46.030Z,11.85
2017-04-22T00:26:46.069Z,11.78
2017-04-22T00:27:46.406Z,11.78
2017-04-22T00:28:46.446Z,11.8
2017-04-22T00:29:46.497Z,11.77
2017-04-22T00:30:46.513Z,11.75
2017-04-22T00:31:46.250Z,11.71
2017-04-22T00:32:46.596Z,11.7
2017-04-22T00:33:46.629Z,11.77
2017-04-22T00:34:46.660Z,11.68
2017-04-22T00:35:46.701Z,11.65
2017-04-22T00:36:46.433Z,11.72
2017-04-22T00:37:46.462Z,11.71
2017-04-22T00:38:46.505Z,11.72
2017-04-22T00:39:46.538Z,11.77
2017-04-22T00:40:46.575Z,11.7
2017-04-22T00:41:46.912Z,11.77
2017-04-22T00:42:46.956Z,11.71
2017-04-22T00:43:46.684Z,11.78
2017-04-22T00:44:46.715Z,11.68
2017-04-22T00:45:46.752Z,11.68
2017-04-22T00:46:46.789Z,11.7
2017-04-22T00:47:47.132Z,11.68
2017-04-22T00:48:46.868Z,11.68
2017-04-22T00:49:46.899Z,11.67
2017-04-22T00:50:46.936Z,11.56
2017-04-22T00:51:46.971Z,11.7
2017-04-22T00:52:47.313Z,11.64
2017-04-22T00:53:47.042Z,11.59
2017-04-22T00:54:47.104Z,11.59
2017-04-22T00:55:47.118Z,11.61
2017-04-22T00:56:47.148Z,11.61
2017-04-22T00:57:47.189Z,11.7
2017-04-22T00:58:47.532Z,11.64
2017-04-22T00:59:47.256Z,11.61
2017-04-22T01:00:47.294Z,11.56
2017-04-22T01:01:47.671Z,11.52
2017-04-22T01:02:47.373Z,11.57
2017-04-22T01:03:47.408Z,11.5
2017-04-22T01:04:47.450Z,11.41
2017-04-22T01:05:48.082Z,11.46
2017-04-22T01:06:47.508Z,11.46
2017-04-22T01:07:47.546Z,11.36
2017-04-22T01:08:47.590Z,11.36
2017-04-22T01:09:47.621Z,11.32
2017-04-22T01:10:47.652Z,11.49
2017-04-22T01:11:47.695Z,11.43
2017-04-22T01:12:47.730Z,11.43
2017-04-22T01:13:48.064Z,11.34
2017-04-22T01:14:47.801Z,11.27
2017-04-22T01:15:47.833Z,11.32
2017-04-22T01:16:47.871Z,11.29
2017-04-22T01:17:47.905Z,11.32
2017-04-22T01:18:48.128Z,11.36
2017-04-22T01:19:47.979Z,11.31
2017-04-22T01:20:48.010Z,11.31
2017-04-22T01:21:48.049Z,11.29
2017-04-22T01:22:48.118Z,11.25
2017-04-22T01:23:48.126Z,11.28
2017-04-22T01:24:48.152Z,11.17
2017-04-22T01:25:48.189Z,11.11
2017-04-22T01:26:48.231Z,11.2
2017-04-22T01:27:48.267Z,11.19
2017-04-22T01:28:48.309Z,11.19
2017-04-22T01:29:48.337Z,11.13
2017-04-22T01:30:48.982Z,11.14
2017-04-22T01:31:48.710Z,11.16
2017-04-22T01:32:48.747Z,11.1
2017-04-22T01:33:48.485Z,11.09
2017-04-22T01:34:48.517Z,11.13
2017-04-22T01:35:48.556Z,11.13
2017-04-22T01:36:48.600Z,11.06
2017-04-22T01:37:48.630Z,11.06
2017-04-22T01:38:48.660Z,10.99
2017-04-22T01:39:48.696Z,11.13
2017-04-22T01:40:49.034Z,11.07
2017-04-22T01:41:49.067Z,10.99
2017-04-22T01:42:48.797Z,11.07
2017-04-22T01:43:49.143Z,11.02
2017-04-22T01:44:49.178Z,10.96
2017-04-22T01:45:48.910Z,10.95
2017-04-22T01:46:48.953Z,10.96
2017-04-22T01:47:48.980Z,10.96
2017-04-22T01:48:49.318Z,10.91
2017-04-22T01:49:49.055Z,10.91
2017-04-22T01:50:49.398Z,10.88
2017-04-22T01:51:49.425Z,10.86
2017-04-22T01:52:49.506Z,10.94
2017-04-22T01:53:49.802Z,10.88
2017-04-22T01:54:49.534Z,10.83
2017-04-22T01:55:49.266Z,10.94
2017-04-22T01:56:49.302Z,10.81
2017-04-22T01:57:49.332Z,10.89
2017-04-22T01:58:49.378Z,10.89
2017-04-22T01:59:49.426Z,10.89
2017-04-22T02:00:49.896Z,10.83
2017-04-22T02:01:49.481Z,10.84
2017-04-22T02:02:49.519Z,10.84
2017-04-22T02:03:49.861Z,10.78
2017-04-22T02:04:49.892Z,10.81
2017-04-22T02:05:49.624Z,10.81
2017-04-22T02:06:49.658Z,10.77
2017-04-22T02:07:49.694Z,10.84
2017-04-22T02:08:49.727Z,10.7
2017-04-22T02:09:50.064Z,10.77
2017-04-22T02:10:49.800Z,10.7
2017-04-22T02:11:50.137Z,10.71
2017-04-22T02:12:50.169Z,10.68
2017-04-22T02:13:49.907Z,10.71
2017-04-22T02:14:49.944Z,10.77
2017-04-22T02:15:49.980Z,10.77
2017-04-22T02:16:50.012Z,10.71
2017-04-22T02:17:50.351Z,10.77
2017-04-22T02:18:50.394Z,10.8
2017-04-22T02:19:50.122Z,10.76
2017-04-22T02:20:50.156Z,10.78
2017-04-22T02:21:50.191Z,10.81
2017-04-22T02:22:50.225Z,10.78
2017-04-22T02:23:50.263Z,10.76
2017-04-22T02:24:50.604Z,10.77
2017-04-22T02:25:50.639Z,10.76
2017-04-22T02:26:50.671Z,10.73
2017-04-22T02:27:50.704Z,10.76
2017-04-22T02:28:50.441Z,10.63
2017-04-22T02:29:50.779Z,10.71
2017-04-22T02:30:50.515Z,10.81
2017-04-22T02:31:50.544Z,10.71
2017-04-22T02:32:50.888Z,10.76
2017-04-22T02:33:50.918Z,10.83
2017-04-22T02:34:50.748Z,10.71
2017-04-22T02:35:50.708Z,10.77
2017-04-22T02:36:50.723Z,10.71
2017-04-22T02:37:51.064Z,10.77
2017-04-22T02:38:50.833Z,10.68
2017-04-22T02:39:50.830Z,10.68
2017-04-22T02:40:50.869Z,10.68
2017-04-22T02:41:50.914Z,10.77
2017-04-22T02:42:51.032Z,10.65
2017-04-22T02:43:50.978Z,10.62
2017-04-22T02:44:51.008Z,10.65
2017-04-22T02:45:51.050Z,10.66
2017-04-22T02:46:51.081Z,10.62
2017-04-22T02:47:51.120Z,10.59
2017-04-22T02:48:51.452Z,10.6
2017-04-22T02:49:51.188Z,10.56
2017-04-22T02:50:51.222Z,10.63
2017-04-22T02:51:52.214Z,10.58
2017-04-22T02:52:51.595Z,10.55
2017-04-22T02:53:51.627Z,10.66
2017-04-22T02:54:51.669Z,10.6
2017-04-22T02:55:51.701Z,10.59
2017-04-22T02:56:51.435Z,10.52
2017-04-22T02:57:51.795Z,10.56
2017-04-22T02:58:51.809Z,10.63
2017-04-22T02:59:51.544Z,10.56
2017-04-22T03:00:51.578Z,10.63
2017-04-22T03:01:51.613Z,10.55
2017-04-22T03:02:51.648Z,10.58
2017-04-22T03:03:51.682Z,10.59
2017-04-22T03:04:51.725Z,10.62
2017-04-22T03:05:51.751Z,10.52
2017-04-22T03:06:51.791Z,10.51
2017-04-22T03:07:51.826Z,10.47
2017-04-22T03:08:52.159Z,10.37
2017-04-22T03:09:51.898Z,10.37
2017-04-22T03:10:51.931Z,10.34
2017-04-22T03:11:51.972Z,10.37
2017-04-22T03:12:52.003Z,10.28
2017-04-22T03:13:52.046Z,10.32
2017-04-22T03:14:52.067Z,10.17
2017-04-22T03:15:52.116Z,10.25
2017-04-22T03:16:52.140Z,10.24
2017-04-22T03:17:52.174Z,10.17
2017-04-22T03:18:52.213Z,10.12
2017-04-22T03:19:52.249Z,10.17
2017-04-22T03:20:52.286Z,10.19
2017-04-22T03:21:52.321Z,10.09
2017-04-22T03:22:52.355Z,10.1
2017-04-22T03:23:52.701Z,10.22
2017-04-22T03:24:52.737Z,10.12
2017-04-22T03:25:52.790Z,10.18
2017-04-22T03:26:52.494Z,10.12
2017-04-22T03:27:52.533Z,10.07
2017-04-22T03:28:52.574Z,10.03
2017-04-22T03:29:52.905Z,9.93
2017-04-22T03:30:52.642Z,9.75
2017-04-22T03:31:52.670Z,9.75
2017-04-22T03:32:52.711Z,9.6
2017-04-22T03:33:52.737Z,9.49
2017-04-22T03:34:52.780Z,9.34
2017-04-22T03:35:52.811Z,9.23
2017-04-22T03:36:52.843Z,9.16
2017-04-22T03:37:52.881Z,9.09
2017-04-22T03:38:52.919Z,9.01
2017-04-22T03:39:52.944Z,9.04
2017-04-22T03:40:53.285Z,8.97
2017-04-22T03:41:53.021Z,8.9
2017-04-22T03:42:53.356Z,9.01
2017-04-22T03:43:53.141Z,9.01
2017-04-22T03:44:53.423Z,8.94
2017-04-22T03:45:53.156Z,8.9
2017-04-22T03:46:53.199Z,8.93
2017-04-22T03:47:53.537Z,8.97
2017-04-22T03:48:53.258Z,8.97
2017-04-22T03:49:53.599Z,9.02
2017-04-22T03:50:53.330Z,8.94
2017-04-22T03:51:53.362Z,8.96
2017-04-22T03:52:53.699Z,9.05
2017-04-22T03:53:53.447Z,9.05
2017-04-22T03:54:53.776Z,8.96
2017-04-22T03:55:53.503Z,9.02
2017-04-22T03:56:53.543Z,9.02
2017-04-22T03:57:53.572Z,9.1
2017-04-22T03:58:53.624Z,9.05
2017-04-22T03:59:53.950Z,9.05
2017-04-22T04:00:53.675Z,9.05
2017-04-22T04:01:53.910Z,9.04
2017-04-22T04:02:53.746Z,8.99
2017-04-22T04:03:53.794Z,9.02
2017-04-22T04:04:53.812Z,9.01
2017-04-22T04:05:53.849Z,8.99
2017-04-22T04:06:54.185Z,9.06
2017-04-22T04:07:53.918Z,9.06
2017-04-22T04:08:54.256Z,8.94
2017-04-22T04:09:53.987Z,8.87
2017-04-22T04:10:54.328Z,8.97
2017-04-22T04:11:54.057Z,9.01
2017-04-22T04:12:54.699Z,9.04
2017-04-22T04:13:54.130Z,8.97
2017-04-22T04:14:54.159Z,9.01
2017-04-22T04:15:54.194Z,8.99
2017-04-22T04:16:54.232Z,8.93
2017-04-22T04:17:54.565Z,8.93
2017-04-22T04:18:54.603Z,9.02
2017-04-22T04:19:54.339Z,8.83
2017-04-22T04:20:54.367Z,8.83
2017-04-22T04:21:54.404Z,8.87
2017-04-22T04:22:54.738Z,8.84
2017-04-22T04:23:54.771Z,8.9
2017-04-22T04:24:54.506Z,8.86
2017-04-22T04:25:54.538Z,8.88
2017-04-22T04:26:54.578Z,8.86
2017-04-22T04:27:54.610Z,8.78
2017-04-22T04:28:54.944Z,8.83
2017-04-22T04:29:54.681Z,8.83
2017-04-22T04:30:54.711Z,8.79
2017-04-22T04:31:54.745Z,8.87
2017-04-22T04:32:55.089Z,8.83
2017-04-22T04:33:55.124Z,8.88
2017-04-22T04:34:54.849Z,8.76
2017-04-22T04:35:54.887Z,8.88
2017-04-22T04:36:54.917Z,8.83
2017-04-22T04:37:54.958Z,8.83
2017-04-22T04:38:55.295Z,8.84
2017-04-22T04:39:55.326Z,8.83
2017-04-22T04:40:55.054Z,8.83
2017-04-22T04:41:55.093Z,8.78
2017-04-22T04:42:55.430Z,8.75
2017-04-22T04:43:55.165Z,8.76
2017-04-22T04:44:55.199Z,8.88
2017-04-22T04:45:56.096Z,8.88
2017-04-22T04:46:55.266Z,8.87
2017-04-22T04:47:55.303Z,8.93
2017-04-22T04:48:55.338Z,8.83
2017-04-22T04:49:55.373Z,8.88
2017-04-22T04:50:55.404Z,8.84
2017-04-22T04:51:55.435Z,8.86
2017-04-22T04:52:55.472Z,8.86
2017-04-22T04:53:55.810Z,8.9
2017-04-22T04:54:55.548Z,8.96
2017-04-22T04:55:55.575Z,8.97
2017-04-22T04:56:55.617Z,8.94
2017-04-22T04:57:55.645Z,8.97
2017-04-22T04:58:55.694Z,8.93
2017-04-22T04:59:56.157Z,9.02
2017-04-22T05:00:55.747Z,8.87
2017-04-22T05:01:55.785Z,8.99
2017-04-22T05:02:55.816Z,8.96
2017-04-22T05:03:55.850Z,9.01
2017-04-22T05:04:56.236Z,8.93
2017-04-22T05:05:55.920Z,8.97
2017-04-22T05:06:56.263Z,8.93
2017-04-22T05:07:55.994Z,9.04
2017-04-22T05:08:56.030Z,8.94
2017-04-22T05:09:56.065Z,9.02
2017-04-22T05:10:56.094Z,8.96
2017-04-22T05:11:56.135Z,9.04
2017-04-22T05:12:56.466Z,8.94
2017-04-22T05:13:56.499Z,9.01
2017-04-22T05:14:56.538Z,8.96
2017-04-22T05:15:56.271Z,9.06
2017-04-22T05:16:56.300Z,9.01
2017-04-22T05:17:56.344Z,9.06
2017-04-22T05:18:56.378Z,9.04
2017-04-22T05:19:56.406Z,9.15
2017-04-22T05:20:56.556Z,9.1
2017-04-22T05:21:56.480Z,9.12
2017-04-22T05:22:56.823Z,9.21
2017-04-22T05:23:56.560Z,9.25
2017-04-22T05:24:56.582Z,9.21
2017-04-22T05:25:56.773Z,9.28
2017-04-22T05:26:56.664Z,9.31
2017-04-22T05:27:56.690Z,9.25
2017-04-22T05:28:56.725Z,9.34
2017-04-22T05:29:56.779Z,9.38
2017-04-22T05:30:56.793Z,9.34
2017-04-22T05:31:56.830Z,9.34
2017-04-22T05:32:57.162Z,9.3
2017-04-22T05:33:56.894Z,9.42
2017-04-22T05:34:56.935Z,9.46
2017-04-22T05:35:56.969Z,9.48
2017-04-22T05:36:57.018Z,9.48
2017-04-22T05:37:57.039Z,9.48
2017-04-22T05:38:57.075Z,9.45
2017-04-22T05:39:57.416Z,9.42
2017-04-22T05:40:57.148Z,9.42
2017-04-22T05:41:57.180Z,9.4
2017-04-22T05:42:57.217Z,9.43
2017-04-22T05:43:57.561Z,9.4
2017-04-22T05:44:57.286Z,9.3
2017-04-22T05:45:57.317Z,9.34
2017-04-22T05:46:57.354Z,9.35
2017-04-22T05:47:57.701Z,9.28
2017-04-22T05:48:57.726Z,9.27
2017-04-22T05:49:57.771Z,9.27
2017-04-22T05:50:57.493Z,9.23
2017-04-22T05:51:57.529Z,9.25
2017-04-22T05:52:57.564Z,9.24
2017-04-22T05:53:57.600Z,9.23
2017-04-22T05:54:57.633Z,9.21
2017-04-22T05:55:57.678Z,9.23
2017-04-22T05:56:57.728Z,9.18
2017-04-22T05:57:57.744Z,9.23
2017-04-22T05:58:58.084Z,9.15
2017-04-22T05:59:58.277Z,9.09
2017-04-22T06:00:57.839Z,9.06
2017-04-22T06:01:57.881Z,9.06
2017-04-22T06:02:58.237Z,9.05
2017-04-22T06:03:58.248Z,9.05
2017-04-22T06:04:58.296Z,9.02
2017-04-22T06:05:58.327Z,9.01
2017-04-22T06:06:58.361Z,9.05
2017-04-22T06:07:58.393Z,8.99
2017-04-22T06:08:58.447Z,9.04
2017-04-22T06:09:58.163Z,9.01
2017-04-22T06:10:58.499Z,9.09
2017-04-22T06:11:58.231Z,9.09
2017-04-22T06:12:58.568Z,9.2
2017-04-22T06:13:58.297Z,9.2
2017-04-22T06:14:58.644Z,9.35
2017-04-22T06:15:58.364Z,9.38
2017-04-22T06:16:58.719Z,9.32
2017-04-22T06:17:58.441Z,9.35
2017-04-22T06:18:58.786Z,9.48
2017-04-22T06:19:58.814Z,9.46
2017-04-22T06:20:58.545Z,9.6
2017-04-22T06:21:58.581Z,9.75
2017-04-22T06:22:58.916Z,9.76
2017-04-22T06:23:58.952Z,9.78
2017-04-22T06:24:58.698Z,9.86
2017-04-22T06:25:58.718Z,9.86
2017-04-22T06:26:58.761Z,9.96
2017-04-22T06:27:59.096Z,9.85
2017-04-22T06:28:59.133Z,9.85
2017-04-22T06:29:59.172Z,9.97
2017-04-22T06:30:58.896Z,9.93
2017-04-22T06:31:59.252Z,10.07
2017-04-22T06:32:58.968Z,9.99
2017-04-22T06:33:59.311Z,10.06
2017-04-22T06:34:59.043Z,10.18
2017-04-22T06:35:59.076Z,10.25
2017-04-22T06:36:59.126Z,10.39
2017-04-22T06:37:59.147Z,10.43
2017-04-22T06:38:59.182Z,10.59
2017-04-22T06:39:59.374Z,10.66
2017-04-22T06:40:59.256Z,10.65
2017-04-22T06:41:59.297Z,10.8
2017-04-22T06:42:59.636Z,10.83
2017-04-22T06:43:59.674Z,10.89
2017-04-22T06:44:59.711Z,10.86
2017-04-22T06:45:59.436Z,10.86
2017-04-22T06:46:59.780Z,10.65
2017-04-22T06:47:59.516Z,10.74
2017-04-22T06:48:59.850Z,10.62
2017-04-22T06:49:59.887Z,10.56
2017-04-22T06:50:59.619Z,10.58
2017-04-22T06:51:59.893Z,10.51
2017-04-22T06:52:59.689Z,10.46
2017-04-22T06:53:59.729Z,10.4
2017-04-22T06:54:59.780Z,10.55
2017-04-22T06:55:59.799Z,10.53
2017-04-22T06:56:59.837Z,10.68
2017-04-22T06:58:00.315Z,10.77
2017-04-22T06:58:59.911Z,10.84
2017-04-22T07:00:00.253Z,11.13
2017-04-22T07:00:59.984Z,11.52
2017-04-22T07:02:00.018Z,12.05
2017-04-22T07:03:00.059Z,12.52
2017-04-22T07:04:00.268Z,13.04
2017-04-22T07:05:00.442Z,13.67
2017-04-22T07:06:00.485Z,14.43
2017-04-22T07:07:00.531Z,15.23
2017-04-22T07:08:00.567Z,15.93
2017-04-22T07:09:00.609Z,16.2
2017-04-22T07:10:00.634Z,16.59
2017-04-22T07:11:00.370Z,16.78
2017-04-22T07:12:00.718Z,16.88
2017-04-22T07:13:00.784Z,16.78
2017-04-22T07:14:00.805Z,16.74
2017-04-22T07:15:00.529Z,16.8
2017-04-22T07:16:00.573Z,16.96
2017-04-22T07:17:00.612Z,16.93
2017-04-22T07:18:00.955Z,16.75
2017-04-22T07:19:00.692Z,16.4
2017-04-22T07:20:01.035Z,16.34
2017-04-22T07:21:00.783Z,16.15
2017-04-22T07:22:00.808Z,16.07
2017-04-22T07:23:01.158Z,16.22
2017-04-22T07:24:01.200Z,16.23
2017-04-22T07:25:00.944Z,16.4
2017-04-22T07:26:00.977Z,16.62
2017-04-22T07:27:01.018Z,16.9
2017-04-22T07:28:01.054Z,17.57
2017-04-22T07:29:01.096Z,18.29
2017-04-22T07:30:01.134Z,18.97
2017-04-22T07:31:01.177Z,19.29
2017-04-22T07:32:01.218Z,19.23
2017-04-22T07:33:01.868Z,18.94
2017-04-22T07:34:01.609Z,18.61
2017-04-22T07:35:01.652Z,18.12
2017-04-22T07:36:01.390Z,17.88
2017-04-22T07:37:01.728Z,17.55
2017-04-22T07:38:01.774Z,17.15
2017-04-22T07:39:01.821Z,17.18
2017-04-22T07:40:01.552Z,17.22
2017-04-22T07:41:01.589Z,16.98
2017-04-22T07:42:01.629Z,16.86
2017-04-22T07:43:01.670Z,16.53
2017-04-22T07:44:01.708Z,16.18
2017-04-22T07:45:02.087Z,16.31
2017-04-22T07:46:02.095Z,16.75
2017-04-22T07:47:01.833Z,17.15
2017-04-22T07:48:02.174Z,17.23
2017-04-22T07:49:02.052Z,17.41
2017-04-22T07:50:02.260Z,17.76
2017-04-22T07:51:02.304Z,18.43
2017-04-22T07:52:02.341Z,19.2
2017-04-22T07:53:02.386Z,19.97
2017-04-22T07:54:02.122Z,20.87
2017-04-22T07:55:02.170Z,21.51
2017-04-22T07:56:02.218Z,22.12
2017-04-22T07:57:02.567Z,22.83
2017-04-22T07:58:02.301Z,23.23
2017-04-22T07:59:02.649Z,23.52
2017-04-22T08:00:02.696Z,23.24
2017-04-22T08:01:02.436Z,23.22
2017-04-22T08:02:02.478Z,23.02
2017-04-22T08:03:02.529Z,22.53
2017-04-22T08:04:02.569Z,22.41
2017-04-22T08:05:02.614Z,22.38
2017-04-22T08:06:02.660Z,22.46
2017-04-22T08:07:02.700Z,22.59
2017-04-22T08:08:02.749Z,23.01
2017-04-22T08:09:03.101Z,23.42
2017-04-22T08:10:02.842Z,23.72
2017-04-22T08:11:02.881Z,24.2
2017-04-22T08:12:02.938Z,24.73
2017-04-22T08:13:02.980Z,25.02
2017-04-22T08:14:03.037Z,24.98
2017-04-22T08:15:03.099Z,24.85
2017-04-22T08:16:03.118Z,24.38
2017-04-22T08:17:03.467Z,24.05
2017-04-22T08:18:03.510Z,23.53
2017-04-22T08:19:03.557Z,22.89
2017-04-22T08:20:03.606Z,22.16
2017-04-22T08:21:03.343Z,21.32
2017-04-22T08:22:03.392Z,20.51
2017-04-22T08:23:03.435Z,19.75
2017-04-22T08:24:03.932Z,19.15
2017-04-22T08:25:03.523Z,18.55
2017-04-22T08:26:03.565Z,18.12
2017-04-22T08:27:03.606Z,17.78
2017-04-22T08:28:03.955Z,17.23
2017-04-22T08:29:03.688Z,16.98
2017-04-22T08:30:04.029Z,16.55
2017-04-22T08:31:03.774Z,16.63
2017-04-22T08:32:04.117Z,16.55
2017-04-22T08:33:04.459Z,16.75
2017-04-22T08:34:03.896Z,17.18
2017-04-22T08:35:03.943Z,17.59
2017-04-22T08:36:03.978Z,17.81
2017-04-22T08:37:04.018Z,17.85
2017-04-22T08:38:04.065Z,17.87
2017-04-22T08:39:04.104Z,17.53
2017-04-22T08:40:04.146Z,17.2
2017-04-22T08:41:04.493Z,16.9
2017-04-22T08:42:04.525Z,16.73
2017-04-22T08:43:04.269Z,16.42
2017-04-22T08:44:04.313Z,16.15
2017-04-22T08:45:04.652Z,16
2017-04-22T08:46:04.395Z,16
2017-04-22T08:47:04.433Z,16.12
2017-04-22T08:48:04.471Z,16.35
2017-04-22T08:49:04.507Z,16.31
2017-04-22T08:50:04.552Z,16.34
2017-04-22T08:51:04.589Z,16.23
2017-04-22T08:52:04.628Z,16.33
2017-04-22T08:53:04.674Z,16.59
2017-04-22T08:54:04.712Z,16.96
2017-04-22T08:55:04.749Z,17.36
2017-04-22T08:56:04.795Z,17.82
2017-04-22T08:57:04.836Z,18.28
2017-04-22T08:58:04.878Z,18.76
2017-04-22T08:59:04.919Z,19.05
2017-04-22T09:00:05.263Z,19.35
2017-04-22T09:01:05.005Z,19.69
2017-04-22T09:02:05.049Z,19.9
2017-04-22T09:03:05.092Z,20.13
2017-04-22T09:04:05.443Z,20.13
2017-04-22T09:05:05.187Z,20.02
2017-04-22T09:06:05.225Z,19.8
2017-04-22T09:07:05.265Z,19.51
2017-04-22T09:08:05.626Z,19.18
2017-04-22T09:09:05.371Z,18.7
2017-04-22T09:10:05.696Z,18.5
2017-04-22T09:11:05.744Z,18.06
2017-04-22T09:12:05.785Z,17.78
2017-04-22T09:13:05.827Z,17.51
2017-04-22T09:14:05.869Z,17.2
2017-04-22T09:15:05.914Z,17.04
2017-04-22T09:16:05.646Z,16.8
2017-04-22T09:17:05.993Z,16.48
2017-04-22T09:18:05.729Z,16.25
2017-04-22T09:19:06.069Z,16
2017-04-22T09:20:05.813Z,15.64
2017-04-22T09:21:05.850Z,15.36
2017-04-22T09:22:05.890Z,15.06
2017-04-22T09:23:05.934Z,14.81
2017-04-22T09:24:05.973Z,14.53
2017-04-22T09:25:06.314Z,14.28
2017-04-22T09:26:06.351Z,14.21
2017-04-22T09:27:06.089Z,14.1
2017-04-22T09:28:06.130Z,14.04
2017-04-22T09:29:06.465Z,14.04
2017-04-22T09:30:06.212Z,14.17
2017-04-22T09:31:06.546Z,14.37
2017-04-22T09:32:06.589Z,14.53
2017-04-22T09:33:06.627Z,14.6
2017-04-22T09:34:06.363Z,14.68
2017-04-22T09:35:06.706Z,14.75
2017-04-22T09:36:06.442Z,14.68
2017-04-22T09:37:06.786Z,14.67
2017-04-22T09:38:06.520Z,14.61
2017-04-22T09:39:06.561Z,14.47
2017-04-22T09:40:06.904Z,14.39
2017-04-22T09:41:06.642Z,14.28
2017-04-22T09:42:07.038Z,14.14
2017-04-22T09:43:06.721Z,14.02
2017-04-22T09:44:06.759Z,14.14
2017-04-22T09:45:06.796Z,14.16
2017-04-22T09:46:06.831Z,14.02
2017-04-22T09:47:07.175Z,14.13
2017-04-22T09:48:06.911Z,14.16
2017-04-22T09:49:06.962Z,14.14
2017-04-22T09:50:06.991Z,14.27
2017-04-22T09:51:07.054Z,14.28
2017-04-22T09:52:07.069Z,14.39
2017-04-22T09:53:07.129Z,14.56
2017-04-22T09:54:07.145Z,14.74
2017-04-22T09:55:07.505Z,14.86
2017-04-22T09:56:07.282Z,14.93
2017-04-22T09:57:07.261Z,14.93
2017-04-22T09:58:07.310Z,14.88
2017-04-22T09:59:07.347Z,14.84
2017-04-22T10:00:07.392Z,14.67
2017-04-22T10:01:07.421Z,14.62
2017-04-22T10:02:07.769Z,14.5
2017-04-22T10:03:07.507Z,14.38
2017-04-22T10:04:07.541Z,14.28
2017-04-22T10:05:07.618Z,14.25
2017-04-22T10:06:07.619Z,14.28
2017-04-22T10:07:07.658Z,14.35
2017-04-22T10:08:07.703Z,14.38
2017-04-22T10:09:08.039Z,14.5
2017-04-22T10:10:07.814Z,14.65
2017-04-22T10:11:07.817Z,14.98
2017-04-22T10:12:07.861Z,15.21
2017-04-22T10:13:07.907Z,15.42
2017-04-22T10:14:07.940Z,15.48
2017-04-22T10:15:07.987Z,15.66
2017-04-22T10:16:08.025Z,15.61
2017-04-22T10:17:08.072Z,15.49
2017-04-22T10:18:08.105Z,15.43
2017-04-22T10:19:08.157Z,15.28
2017-04-22T10:20:08.188Z,15.21
2017-04-22T10:21:08.538Z,15.13
2017-04-22T10:22:08.578Z,15.05
2017-04-22T10:23:08.315Z,15.05
2017-04-22T10:24:08.358Z,14.94
2017-04-22T10:25:08.398Z,14.94
2017-04-22T10:26:08.740Z,14.91
2017-04-22T10:27:08.474Z,14.99
2017-04-22T10:28:08.544Z,15.36
2017-04-22T10:29:09.162Z,15.48
2017-04-22T10:30:08.600Z,15.79
2017-04-22T10:31:08.642Z,15.96
2017-04-22T10:32:08.697Z,16.12
2017-04-22T10:33:09.042Z,16.25
2017-04-22T10:34:08.773Z,16.49
2017-04-22T10:35:08.815Z,16.74
2017-04-22T10:36:08.861Z,16.8
2017-04-22T10:37:08.899Z,16.86
2017-04-22T10:38:08.945Z,16.73
2017-04-22T10:39:09.299Z,16.53
2017-04-22T10:40:09.036Z,16.35
2017-04-22T10:41:09.383Z,16.23
2017-04-22T10:42:09.124Z,16.18
2017-04-22T10:43:09.163Z,16.03
2017-04-22T10:44:09.208Z,16.09
2017-04-22T10:45:09.244Z,16.09
2017-04-22T10:46:09.296Z,15.82
2017-04-22T10:47:09.336Z,15.67
2017-04-22T10:48:09.685Z,15.68
2017-04-22T10:49:09.420Z,15.66
2017-04-22T10:50:09.463Z,15.61
2017-04-22T10:51:09.806Z,15.54
2017-04-22T10:52:09.559Z,15.59
2017-04-22T10:53:09.622Z,15.56
2017-04-22T10:54:09.629Z,15.45
2017-04-22T10:55:09.677Z,15.3
2017-04-22T10:56:09.711Z,15.27
2017-04-22T10:57:09.760Z,15.05
2017-04-22T10:58:09.796Z,15.08
2017-04-22T10:59:09.855Z,14.98
2017-04-22T11:00:09.886Z,14.83
2017-04-22T11:01:09.917Z,14.87
2017-04-22T11:02:09.959Z,15.12
2017-04-22T11:03:10.003Z,15.03
2017-04-22T11:04:10.345Z,15.23
2017-04-22T11:05:10.398Z,15.21
2017-04-22T11:06:10.127Z,15.28
2017-04-22T11:07:10.175Z,15.3
2017-04-22T11:08:10.223Z,15.39
2017-04-22T11:09:10.261Z,15.54
2017-04-22T11:10:10.300Z,15.52
2017-04-22T11:11:10.352Z,15.61
2017-04-22T11:12:10.394Z,15.66
2017-04-22T11:13:10.733Z,15.74
2017-04-22T11:14:10.775Z,15.6
2017-04-22T11:15:10.509Z,15.74
2017-04-22T11:16:10.555Z,15.75
2017-04-22T11:17:10.893Z,15.63
2017-04-22T11:18:10.641Z,15.6
2017-04-22T11:19:10.683Z,15.56
2017-04-22T11:20:10.722Z,15.72
2017-04-22T11:21:10.766Z,15.75
2017-04-22T11:22:10.807Z,15.63
2017-04-22T11:23:10.858Z,15.54
2017-04-22T11:24:10.885Z,15.39
2017-04-22T11:25:10.935Z,15.35
2017-04-22T11:26:11.273Z,15.2
2017-04-22T11:27:11.347Z,15.17
2017-04-22T11:28:11.368Z,15.06
2017-04-22T11:29:11.099Z,14.99
2017-04-22T11:30:11.150Z,14.98
2017-04-22T11:31:11.481Z,14.91
2017-04-22T11:32:11.219Z,14.98
2017-04-22T11:33:11.561Z,14.84
2017-04-22T11:34:11.302Z,14.78
2017-04-22T11:35:11.643Z,14.57
2017-04-22T11:36:11.374Z,14.49
2017-04-22T11:37:11.420Z,14.44
2017-04-22T11:38:11.759Z,14.37
2017-04-22T11:39:11.802Z,14.21
2017-04-22T11:40:11.533Z,14.24
2017-04-22T11:41:11.578Z,14.17
2017-04-22T11:42:11.617Z,14.12
2017-04-22T11:43:11.953Z,14.13
2017-04-22T11:44:11.725Z,14.13
2017-04-22T11:45:11.733Z,14.16
2017-04-22T11:46:11.771Z,14.17
2017-04-22T11:47:11.808Z,14.14
2017-04-22T11:48:11.854Z,14.2
2017-04-22T11:49:11.928Z,14.25
2017-04-22T11:50:11.934Z,14.25
2017-04-22T11:51:11.966Z,14.32
2017-04-22T11:52:12.012Z,14.37
2017-04-22T11:53:12.347Z,14.25
2017-04-22T11:54:12.392Z,14.34
2017-04-22T11:55:12.126Z,14.2
2017-04-22T11:56:12.163Z,14.1
2017-04-22T11:57:12.508Z,13.96
2017-04-22T11:58:12.552Z,13.77
2017-04-22T11:59:12.322Z,13.46
2017-04-22T12:00:12.318Z,13.3
2017-04-22T12:01:12.359Z,13.11
2017-04-22T12:02:12.707Z,13.07
2017-04-22T12:03:12.742Z,12.89
2017-04-22T12:04:12.478Z,12.77
2017-04-22T12:05:12.507Z,12.66
2017-04-22T12:06:12.578Z,12.57
2017-04-22T12:07:12.588Z,12.63
2017-04-22T12:08:12.636Z,12.62
2017-04-22T12:09:12.968Z,12.66
2017-04-22T12:10:12.701Z,12.77
2017-04-22T12:11:12.736Z,12.75
2017-04-22T12:12:12.774Z,12.74
2017-04-22T12:13:12.818Z,12.75
2017-04-22T12:14:12.856Z,12.77
2017-04-22T12:15:12.887Z,12.7
2017-04-22T12:16:12.926Z,12.77
2017-04-22T12:17:12.967Z,12.78
2017-04-22T12:18:13.031Z,12.88
2017-04-22T12:19:13.041Z,12.88
2017-04-22T12:20:13.078Z,12.96
2017-04-22T12:21:13.129Z,13.03
2017-04-22T12:22:13.157Z,13
2017-04-22T12:23:13.200Z,13.02
2017-04-22T12:24:13.233Z,13.04
2017-04-22T12:25:13.272Z,13
2017-04-22T12:26:13.322Z,13.02
2017-04-22T12:27:13.650Z,12.97
2017-04-22T12:28:13.690Z,12.95
2017-04-22T12:29:13.434Z,12.84
2017-04-22T12:30:13.784Z,12.71
2017-04-22T12:31:13.496Z,12.74
2017-04-22T12:32:13.551Z,12.78
2017-04-22T12:33:13.623Z,12.77
2017-04-22T12:34:13.944Z,12.71
2017-04-22T12:35:13.654Z,12.7
2017-04-22T12:36:13.691Z,12.62
2017-04-22T12:37:13.725Z,12.63
2017-04-22T12:38:13.769Z,12.62
2017-04-22T12:39:13.830Z,12.67
2017-04-22T12:40:13.840Z,12.78
2017-04-22T12:41:13.884Z,12.74
2017-04-22T12:42:14.250Z,12.67
2017-04-22T12:43:13.957Z,12.74
2017-04-22T12:44:13.995Z,12.6
2017-04-22T12:45:14.055Z,12.56
2017-04-22T12:46:14.068Z,12.46
2017-04-22T12:47:14.412Z,12.54
2017-04-22T12:48:14.144Z,12.54
2017-04-22T12:49:14.186Z,12.56
2017-04-22T12:50:14.220Z,12.62
2017-04-22T12:51:14.562Z,12.6
2017-04-22T12:52:14.368Z,12.6
2017-04-22T12:53:14.640Z,12.69
2017-04-22T12:54:14.676Z,12.75
2017-04-22T12:55:14.409Z,12.75
2017-04-22T12:56:14.445Z,12.87
2017-04-22T12:57:14.787Z,13
2017-04-22T12:58:14.521Z,13
2017-04-22T12:59:14.859Z,13.09
2017-04-22T13:00:14.593Z,13.09
2017-04-22T13:01:14.654Z,13.04
2017-04-22T13:02:14.685Z,13.06